Time;durP1;ratioP1;P1;durP2;ratioP2;P2;SDS_P1;SDS_P2;PMS_P1;PMS_P2;Temp;Humidity;BMP_temperature;BMP_pressure;BME280_temperature;BME280_humidity;BME280_pressure;Samples;Min_cycle;Max_cycle;Signal;HPM_P1;HPM_P2
2023/07/02 00:01:49;;;;;;;34.37;11.07;;;27.70;52.70;;;;;;5022174;28;20196;-68
2023/07/02 00:04:19;;;;;;;36.47;10.97;;;27.70;52.70;;;;;;5045706;28;20208;-68
2023/07/02 00:06:46;;;;;;;35.77;11.70;;;27.60;52.70;;;;;;5013773;28;20212;-67
2023/07/02 00:09:14;;;;;;;65.47;14.23;;;27.60;52.60;;;;;;5015263;28;20593;-66
2023/07/02 00:11:45;;;;;;;44.03;11.93;;;27.60;52.70;;;;;;5008258;28;20202;-69
2023/07/02 00:14:12;;;;;;;47.73;13.00;;;27.60;52.70;;;;;;5011682;28;20205;-67
2023/07/02 00:16:43;;;;;;;43.13;11.77;;;27.60;52.60;;;;;;5020857;28;20221;-67
2023/07/02 00:19:11;;;;;;;44.70;12.93;;;27.60;52.70;;;;;;5045674;28;20204;-67
2023/07/02 00:21:38;;;;;;;49.07;12.73;;;27.60;52.70;;;;;;5041867;28;20231;-66
2023/07/02 00:24:06;;;;;;;36.30;11.63;;;27.60;52.70;;;;;;5045837;28;20627;-67
2023/07/02 00:26:32;;;;;;;36.27;11.90;;;27.60;52.70;;;;;;5047723;28;20204;-68
2023/07/02 00:29:01;;;;;;;45.20;12.83;;;27.60;52.70;;;;;;5044746;28;20683;-67
2023/07/02 00:31:28;;;;;;;53.90;13.13;;;27.60;52.70;;;;;;5029792;28;20840;-67
2023/07/02 00:33:54;;;;;;;41.50;12.40;;;27.60;52.70;;;;;;5027126;28;20200;-66
2023/07/02 00:36:21;;;;;;;32.43;12.00;;;27.60;52.70;;;;;;5025332;28;20208;-67
2023/07/02 00:38:50;;;;;;;41.97;12.57;;;27.50;52.60;;;;;;5023158;28;20654;-68
2023/07/02 00:41:17;;;;;;;40.47;12.17;;;27.50;52.60;;;;;;5026032;28;20205;-66
2023/07/02 00:43:44;;;;;;;36.13;12.13;;;27.60;52.70;;;;;;5028587;28;20207;-68
2023/07/02 00:46:17;;;;;;;45.50;12.97;;;27.50;52.70;;;;;;5048148;28;20676;-66
2023/07/02 00:48:45;;;;;;;44.33;12.93;;;27.60;52.70;;;;;;5035126;28;20237;-67
2023/07/02 00:51:14;;;;;;;44.57;13.03;;;27.50;52.60;;;;;;5013775;28;20193;-66
2023/07/02 00:53:41;;;;;;;41.57;12.47;;;27.50;52.60;;;;;;5019308;28;20202;-69
2023/07/02 00:56:08;;;;;;;42.13;12.20;;;27.50;52.60;;;;;;5019823;28;20205;-67
2023/07/02 00:58:40;;;;;;;53.40;13.23;;;27.50;52.60;;;;;;5012453;28;20609;-68
2023/07/02 01:01:09;;;;;;;44.63;12.60;;;27.50;52.60;;;;;;5041422;28;20208;-66
2023/07/02 01:03:37;;;;;;;44.57;12.67;;;27.50;52.60;;;;;;5010611;28;20201;-68
2023/07/02 01:06:04;;;;;;;36.27;11.80;;;27.50;52.60;;;;;;5011193;28;20960;-67
2023/07/02 01:08:31;;;;;;;46.40;13.07;;;27.50;52.60;;;;;;5010050;28;20202;-69
2023/07/02 01:10:59;;;;;;;73.47;16.13;;;27.50;52.60;;;;;;5014750;28;20208;-68
2023/07/02 01:13:27;;;;;;;49.77;14.00;;;27.50;52.60;;;;;;5027513;28;20200;-69
2023/07/02 01:15:54;;;;;;;51.67;13.20;;;27.50;52.70;;;;;;5011775;28;20228;-69
2023/07/02 01:18:21;;;;;;;38.90;12.53;;;27.50;52.60;;;;;;5022982;28;20208;-68
2023/07/02 01:20:50;;;;;;;42.63;13.13;;;27.50;52.60;;;;;;5024486;28;20208;-69
2023/07/02 01:23:17;;;;;;;38.87;12.70;;;27.50;52.70;;;;;;5010659;28;20205;-67
2023/07/02 01:25:45;;;;;;;39.13;12.53;;;27.50;52.60;;;;;;5027357;28;20228;-68
2023/07/02 01:28:13;;;;;;;41.50;13.10;;;27.50;52.70;;;;;;5035026;28;20262;-69
2023/07/02 01:30:40;;;;;;;43.33;13.13;;;27.50;52.70;;;;;;5015103;28;20192;-69
2023/07/02 01:33:07;;;;;;;39.40;12.00;;;27.50;52.70;;;;;;5032629;28;20204;-66
2023/07/02 01:35:34;;;;;;;55.40;14.87;;;27.50;52.70;;;;;;5014108;28;20209;-67
2023/07/02 01:38:02;;;;;;;34.33;11.80;;;27.40;52.60;;;;;;5033391;28;20192;-66
2023/07/02 01:40:29;;;;;;;43.57;13.13;;;27.40;52.60;;;;;;5018063;28;20205;-66
2023/07/02 01:42:55;;;;;;;35.47;11.63;;;27.40;52.60;;;;;;5014054;28;20205;-66
2023/07/02 01:45:22;;;;;;;48.30;13.73;;;27.40;52.70;;;;;;5020834;28;20236;-66
2023/07/02 01:47:49;;;;;;;46.97;13.93;;;27.40;52.70;;;;;;5026024;28;20563;-68
2023/07/02 01:50:16;;;;;;;52.40;14.17;;;27.40;52.70;;;;;;5021169;28;20594;-66
2023/07/02 01:52:43;;;;;;;43.13;12.50;;;27.40;52.70;;;;;;5009103;28;20216;-65
2023/07/02 01:55:11;;;;;;;38.53;12.13;;;27.40;52.70;;;;;;5018974;28;20202;-66
2023/07/02 01:57:38;;;;;;;48.83;13.63;;;27.40;52.70;;;;;;5033294;28;20212;-66
2023/07/02 02:00:07;;;;;;;34.53;11.60;;;27.40;53.30;;;;;;5022363;28;20216;-67
2023/07/02 02:02:33;;;;;;;33.73;11.97;;;27.40;52.60;;;;;;5038626;28;21159;-67
2023/07/02 02:05:00;;;;;;;62.97;15.40;;;27.40;52.60;;;;;;5028986;28;20224;-67
2023/07/02 02:07:27;;;;;;;41.67;13.00;;;27.40;52.70;;;;;;5009927;28;20206;-66
2023/07/02 02:09:54;;;;;;;48.87;13.43;;;27.40;52.70;;;;;;5013363;28;20212;-66
2023/07/02 02:12:22;;;;;;;57.07;14.23;;;27.40;52.70;;;;;;5020109;28;20201;-67
2023/07/02 02:14:49;;;;;;;36.43;12.30;;;27.40;52.60;;;;;;5025291;28;20684;-67
2023/07/02 02:17:16;;;;;;;33.50;11.83;;;27.40;52.70;;;;;;5046867;28;20224;-67
2023/07/02 02:19:43;;;;;;;43.17;12.47;;;27.40;52.70;;;;;;5048323;28;20215;-68
2023/07/02 02:22:10;;;;;;;39.40;11.97;;;27.40;52.70;;;;;;5049745;28;20196;-66
2023/07/02 02:24:37;;;;;;;38.23;12.90;;;27.30;52.60;;;;;;5049359;28;20241;-66
2023/07/02 02:27:04;;;;;;;60.30;14.60;;;27.40;52.70;;;;;;5046966;28;20215;-68
2023/07/02 02:29:32;;;;;;;44.77;12.87;;;27.30;52.60;;;;;;5020804;28;20196;-66
2023/07/02 02:31:59;;;;;;;35.70;12.07;;;27.30;52.60;;;;;;5038927;28;20211;-66
2023/07/02 02:34:26;;;;;;;63.87;15.33;;;27.30;52.60;;;;;;5046304;28;20204;-67
2023/07/02 02:36:55;;;;;;;43.90;13.70;;;27.40;52.70;;;;;;5046703;28;20212;-67
2023/07/02 02:39:22;;;;;;;32.10;11.70;;;27.30;52.60;;;;;;5038174;28;20202;-67
2023/07/02 02:41:48;;;;;;;39.50;13.03;;;27.30;52.60;;;;;;5032325;28;20682;-66
2023/07/02 02:44:15;;;;;;;43.57;13.37;;;27.30;52.60;;;;;;5045823;28;20200;-67
2023/07/02 02:46:43;;;;;;;45.63;13.37;;;27.30;52.60;;;;;;5010188;28;20202;-67
2023/07/02 02:49:10;;;;;;;59.00;14.53;;;27.30;52.60;;;;;;5008383;28;20656;-67
2023/07/02 02:51:37;;;;;;;42.23;12.20;;;27.30;52.60;;;;;;5022584;28;20198;-67
2023/07/02 02:54:04;;;;;;;38.23;12.47;;;27.30;52.60;;;;;;5020686;28;20206;-67
2023/07/02 02:56:31;;;;;;;37.90;12.97;;;27.30;52.60;;;;;;5019051;28;20208;-69
2023/07/02 02:58:58;;;;;;;33.17;11.33;;;27.30;52.60;;;;;;5029093;28;20200;-69
2023/07/02 03:01:29;;;;;;;52.47;13.23;;;27.30;52.60;;;;;;5024536;28;20212;-67
2023/07/02 03:03:59;;;;;;;37.47;12.77;;;27.30;52.60;;;;;;5008677;28;20293;-66
2023/07/02 03:06:26;;;;;;;36.67;12.20;;;27.30;52.60;;;;;;5014787;28;20236;-67
2023/07/02 03:08:53;;;;;;;33.40;12.20;;;27.20;52.60;;;;;;5022143;28;20203;-66
2023/07/02 03:11:20;;;;;;;40.57;12.43;;;27.30;52.60;;;;;;5037236;28;20258;-67
2023/07/02 03:13:47;;;;;;;36.50;12.20;;;27.20;52.60;;;;;;5009856;28;20205;-66
2023/07/02 03:16:14;;;;;;;43.13;13.40;;;27.20;52.60;;;;;;5008493;28;20225;-68
2023/07/02 03:18:41;;;;;;;83.43;16.63;;;27.30;52.60;;;;;;5013685;28;20197;-67
2023/07/02 03:21:10;;;;;;;46.37;12.43;;;27.20;52.60;;;;;;5017747;28;21056;-67
2023/07/02 03:23:37;;;;;;;44.70;13.33;;;27.20;52.60;;;;;;5024633;28;20192;-67
2023/07/02 03:26:04;;;;;;;38.17;12.23;;;27.20;52.60;;;;;;5022012;28;20233;-67
2023/07/02 03:28:31;;;;;;;34.07;12.27;;;27.20;52.60;;;;;;5008528;28;20211;-68
2023/07/02 03:30:58;;;;;;;33.27;12.13;;;27.20;52.60;;;;;;5008699;28;21129;-68
2023/07/02 03:33:25;;;;;;;32.27;11.47;;;27.20;52.60;;;;;;5015548;28;20189;-66
2023/07/02 03:35:51;;;;;;;50.63;13.33;;;27.20;52.60;;;;;;5016197;28;20218;-66
2023/07/02 03:38:20;;;;;;;30.70;12.13;;;27.20;52.60;;;;;;5024073;28;20202;-68
2023/07/02 03:40:49;;;;;;;42.73;11.97;;;27.20;52.60;;;;;;5025374;28;20205;-67
2023/07/02 03:43:16;;;;;;;54.90;14.77;;;27.20;52.60;;;;;;5029812;28;20319;-68
2023/07/02 03:45:42;;;;;;;38.90;11.63;;;27.20;52.60;;;;;;5037527;28;21964;-67
2023/07/02 03:48:09;;;;;;;31.67;11.63;;;27.20;52.60;;;;;;5020723;28;20214;-66
2023/07/02 03:50:36;;;;;;;47.03;12.57;;;27.10;52.50;;;;;;5009826;28;20782;-69
2023/07/02 03:53:03;;;;;;;43.47;12.47;;;27.20;52.60;;;;;;5027194;28;20233;-67
2023/07/02 03:55:32;;;;;;;30.23;11.50;;;27.20;52.60;;;;;;5040244;28;21069;-67
2023/07/02 03:57:59;;;;;;;37.57;12.37;;;27.10;52.50;;;;;;5020678;28;20205;-66
2023/07/02 04:00:25;;;;;;;36.03;12.27;;;27.20;52.60;;;;;;5014821;28;20674;-67
2023/07/02 04:02:52;;;;;;;34.87;11.67;;;27.20;52.60;;;;;;5036796;28;20208;-67
2023/07/02 04:05:19;;;;;;;31.93;11.30;;;27.10;52.50;;;;;;5029294;28;20255;-67
2023/07/02 04:07:46;;;;;;;41.73;12.73;;;27.10;52.50;;;;;;5041653;28;20207;-67
2023/07/02 04:10:13;;;;;;;34.53;11.93;;;27.10;52.50;;;;;;5027369;28;20681;-68
2023/07/02 04:12:41;;;;;;;27.73;11.60;;;27.10;52.60;;;;;;5007749;28;20201;-68
2023/07/02 04:15:09;;;;;;;39.23;12.37;;;27.10;52.50;;;;;;5028989;28;20684;-66
2023/07/02 04:17:36;;;;;;;33.53;11.00;;;27.10;52.50;;;;;;5032008;28;20220;-66
2023/07/02 04:20:04;;;;;;;31.37;10.87;;;27.10;52.50;;;;;;5026210;28;20199;-69
2023/07/02 04:22:31;;;;;;;42.63;11.97;;;27.10;52.50;;;;;;5022373;28;20207;-69
2023/07/02 04:24:58;;;;;;;44.07;12.27;;;27.10;52.50;;;;;;5049991;28;20200;-69
2023/07/02 04:27:25;;;;;;;31.13;11.67;;;27.10;52.50;;;;;;5051197;28;20204;-69
2023/07/02 04:29:55;;;;;;;41.20;11.93;;;27.10;52.50;;;;;;5044316;28;20626;-69
2023/07/02 04:32:22;;;;;;;45.33;12.83;;;27.10;52.50;;;;;;5043451;28;20201;-67
2023/07/02 04:34:49;;;;;;;31.20;11.57;;;27.10;52.60;;;;;;5031606;28;20189;-68
2023/07/02 04:37:16;;;;;;;26.77;11.23;;;27.10;52.60;;;;;;5031901;28;20213;-66
2023/07/02 04:39:43;;;;;;;94.87;15.80;;;27.00;52.50;;;;;;5020063;28;20621;-66
2023/07/02 04:42:14;;;;;;;45.93;12.67;;;27.00;52.50;;;;;;5042083;28;20207;-67
2023/07/02 04:44:43;;;;;;;37.67;11.27;;;27.00;52.50;;;;;;5046583;28;20204;-66
2023/07/02 04:47:11;;;;;;;34.15;11.90;;;27.10;52.50;;;;;;5016423;28;20990;-65
2023/07/02 04:49:38;;;;;;;32.93;10.97;;;26.90;52.60;;;;;;5010698;28;20202;-66
2023/07/02 04:52:05;;;;;;;34.13;11.07;;;27.00;52.80;;;;;;5037237;28;20700;-67
2023/07/02 04:54:32;;;;;;;24.50;10.47;;;27.00;52.70;;;;;;5042837;28;20207;-67
2023/07/02 04:56:59;;;;;;;41.47;11.90;;;27.00;52.60;;;;;;5039121;28;20213;-66
2023/07/02 04:59:26;;;;;;;59.27;13.03;;;27.00;52.50;;;;;;5011763;28;20275;-67
2023/07/02 05:01:53;;;;;;;32.37;11.03;;;27.00;52.60;;;;;;5017416;28;20198;-66
2023/07/02 05:04:21;;;;;;;41.27;11.47;;;27.10;52.60;;;;;;5027217;28;20208;-66
2023/07/02 05:06:48;;;;;;;40.07;11.87;;;27.00;52.50;;;;;;5038575;28;20220;-66
2023/07/02 05:09:15;;;;;;;46.13;11.57;;;27.00;52.50;;;;;;5029980;28;20212;-69
2023/07/02 05:11:42;;;;;;;34.47;10.97;;;27.00;52.50;;;;;;5011096;28;20213;-66
2023/07/02 05:14:09;;;;;;;41.60;10.70;;;27.00;52.50;;;;;;5011294;28;20189;-65
2023/07/02 05:16:36;;;;;;;28.77;10.10;;;27.00;52.50;;;;;;5026604;28;20224;-65
2023/07/02 05:19:03;;;;;;;34.00;11.20;;;27.00;52.50;;;;;;5037107;28;20210;-66
2023/07/02 05:21:31;;;;;;;38.60;11.17;;;27.00;52.50;;;;;;5027902;28;20660;-65
2023/07/02 05:23:58;;;;;;;31.10;10.63;;;27.00;52.50;;;;;;5031503;28;20276;-65
2023/07/02 05:26:26;;;;;;;61.37;12.20;;;27.00;52.50;;;;;;5018744;28;20221;-66
2023/07/02 05:28:52;;;;;;;32.70;9.73;;;27.00;52.50;;;;;;5032417;28;20735;-66
2023/07/02 05:31:19;;;;;;;58.20;12.57;;;27.00;52.50;;;;;;5026831;28;20201;-65
2023/07/02 05:33:46;;;;;;;61.60;12.40;;;27.00;52.50;;;;;;5011060;28;20194;-66
2023/07/02 05:36:13;;;;;;;37.00;10.33;;;27.00;52.50;;;;;;5027516;28;20221;-66
2023/07/02 05:38:41;;;;;;;38.00;9.93;;;27.00;52.50;;;;;;5029609;28;20201;-68
2023/07/02 05:41:08;;;;;;;34.07;10.20;;;27.00;52.50;;;;;;5023927;28;20232;-68
2023/07/02 05:43:35;;;;;;;40.07;10.30;;;27.00;52.50;;;;;;5012639;28;20210;-67
2023/07/02 05:46:02;;;;;;;35.60;10.80;;;27.00;52.50;;;;;;5017417;28;20229;-67
2023/07/02 05:48:29;;;;;;;43.50;10.67;;;27.00;52.50;;;;;;5029735;28;20211;-69
2023/07/02 05:50:56;;;;;;;29.73;10.07;;;27.00;52.50;;;;;;5024058;28;20208;-67
2023/07/02 05:53:23;;;;;;;38.93;10.47;;;27.00;52.50;;;;;;5030588;28;20227;-70
2023/07/02 05:55:51;;;;;;;28.90;9.23;;;27.00;52.50;;;;;;5034292;28;20206;-67
2023/07/02 05:58:18;;;;;;;45.03;10.37;;;27.00;52.50;;;;;;5038215;28;20204;-69
2023/07/02 06:00:48;;;;;;;30.47;9.90;;;27.00;52.50;;;;;;5013585;28;20661;-69
2023/07/02 06:03:19;;;;;;;69.53;13.23;;;27.00;52.50;;;;;;5028750;28;20232;-66
2023/07/02 06:05:48;;;;;;;37.17;10.03;;;27.00;52.50;;;;;;5018763;28;20235;-67
2023/07/02 06:08:14;;;;;;;43.87;10.20;;;27.00;52.50;;;;;;5017829;28;20210;-66
2023/07/02 06:10:41;;;;;;;34.10;9.73;;;27.00;52.50;;;;;;5038607;28;20567;-65
2023/07/02 06:13:10;;;;;;;26.17;8.93;;;27.00;52.50;;;;;;5010826;28;20199;-66
2023/07/02 06:15:37;;;;;;;55.07;11.87;;;27.00;52.50;;;;;;5014595;28;20212;-66
2023/07/02 06:18:04;;;;;;;34.17;9.30;;;27.10;52.60;;;;;;5048343;28;20432;-66
2023/07/02 06:20:31;;;;;;;40.00;10.03;;;27.00;52.50;;;;;;5040435;28;20215;-66
2023/07/02 06:22:57;;;;;;;32.57;9.10;;;27.00;52.50;;;;;;5030549;28;20189;-66
2023/07/02 06:25:24;;;;;;;35.97;9.37;;;27.00;52.50;;;;;;5017294;28;20208;-66
2023/07/02 06:27:52;;;;;;;62.40;11.37;;;27.10;52.50;;;;;;5046203;28;20192;-66
2023/07/02 06:30:20;;;;;;;35.13;9.03;;;27.10;52.50;;;;;;5028642;28;20315;-65
2023/07/02 06:32:47;;;;;;;29.97;8.93;;;27.10;52.50;;;;;;5029750;28;20649;-65
2023/07/02 06:35:14;;;;;;;30.17;8.40;;;27.10;52.50;;;;;;5018028;28;20209;-65
2023/07/02 06:37:41;;;;;;;43.50;9.80;;;27.10;52.50;;;;;;5028203;28;20217;-65
2023/07/02 06:40:09;;;;;;;28.43;8.53;;;27.10;52.50;;;;;;5009349;28;20202;-65
2023/07/02 06:42:36;;;;;;;32.63;8.87;;;27.10;52.40;;;;;;5020907;28;20205;-66
2023/07/02 06:45:03;;;;;;;39.50;9.70;;;27.10;52.50;;;;;;5020414;28;20274;-65
2023/07/02 06:47:31;;;;;;;33.83;8.90;;;27.10;52.40;;;;;;5036292;28;20231;-65
2023/07/02 06:49:59;;;;;;;45.03;10.03;;;27.10;52.40;;;;;;5039004;28;20204;-65
2023/07/02 06:52:26;;;;;;;48.73;10.27;;;27.10;52.40;;;;;;5030031;28;20200;-66
2023/07/02 06:54:53;;;;;;;37.50;9.57;;;27.10;52.40;;;;;;5030134;28;20226;-65
2023/07/02 06:57:21;;;;;;;31.63;8.83;;;27.10;52.40;;;;;;5035107;28;20201;-65
2023/07/02 06:59:48;;;;;;;57.93;11.20;;;27.10;52.40;;;;;;5020409;28;20564;-66
2023/07/02 07:02:15;;;;;;;42.80;9.87;;;27.10;52.30;;;;;;5012140;28;20205;-65
2023/07/02 07:04:43;;;;;;;40.70;10.10;;;27.10;52.30;;;;;;5008875;28;20565;-64
2023/07/02 07:07:09;;;;;;;40.93;9.67;;;27.20;52.20;;;;;;5008380;28;20653;-64
2023/07/02 07:09:36;;;;;;;37.97;9.07;;;27.20;52.10;;;;;;5008925;28;20210;-69
2023/07/02 07:12:04;;;;;;;47.47;10.20;;;27.10;52.00;;;;;;5012780;28;20201;-66
2023/07/02 07:14:30;;;;;;;35.60;9.03;;;27.10;52.00;;;;;;5008672;28;20204;-70
2023/07/02 07:16:57;;;;;;;27.57;8.63;;;27.10;52.00;;;;;;5015949;28;20221;-70
2023/07/02 07:19:24;;;;;;;34.13;9.33;;;27.20;52.10;;;;;;5018412;28;20209;-67
2023/07/02 07:21:52;;;;;;;46.57;10.37;;;27.20;52.10;;;;;;5015995;28;20220;-65
2023/07/02 07:24:19;;;;;;;47.50;9.87;;;27.10;52.00;;;;;;5015016;28;20587;-65
2023/07/02 07:26:46;;;;;;;35.10;9.93;;;27.20;52.10;;;;;;5011228;28;20233;-64
2023/07/02 07:29:14;;;;;;;36.63;10.07;;;27.20;52.10;;;;;;5026397;28;20205;-66
2023/07/02 07:31:41;;;;;;;36.53;9.87;;;27.20;52.10;;;;;;5013263;28;20217;-67
2023/07/02 07:34:08;;;;;;;28.47;8.63;;;27.10;52.00;;;;;;5008337;28;20207;-68
2023/07/02 07:36:34;;;;;;;37.00;9.23;;;27.20;52.10;;;;;;5014252;28;20213;-65
2023/07/02 07:39:03;;;;;;;58.27;10.90;;;27.20;52.10;;;;;;5019171;28;20205;-64
2023/07/02 07:41:30;;;;;;;41.03;9.20;;;27.20;52.10;;;;;;5010781;28;20201;-64
2023/07/02 07:43:56;;;;;;;34.83;8.80;;;27.20;52.10;;;;;;5024027;28;20571;-62
2023/07/02 07:46:23;;;;;;;36.13;8.70;;;27.20;52.10;;;;;;5032605;28;20231;-64
2023/07/02 07:48:50;;;;;;;40.03;9.93;;;27.20;52.10;;;;;;5030334;28;20286;-65
2023/07/02 07:51:17;;;;;;;23.70;8.93;;;27.20;52.10;;;;;;5019293;28;20212;-65
2023/07/02 07:53:44;;;;;;;41.87;9.33;;;27.20;52.10;;;;;;5007982;28;20207;-63
2023/07/02 07:56:12;;;;;;;34.37;9.13;;;27.20;52.10;;;;;;5021439;28;20213;-65
2023/07/02 07:58:39;;;;;;;29.70;8.90;;;27.20;52.10;;;;;;5019034;28;20770;-65
2023/07/02 08:01:06;;;;;;;33.63;9.00;;;27.10;52.00;;;;;;5037891;28;20216;-69
2023/07/02 08:03:33;;;;;;;35.73;9.60;;;27.10;52.00;;;;;;5022120;28;20197;-65
2023/07/02 08:05:59;;;;;;;53.50;10.47;;;27.20;52.10;;;;;;5013049;28;20208;-66
2023/07/02 08:08:26;;;;;;;32.83;8.60;;;27.20;52.10;;;;;;5042214;28;20206;-68
2023/07/02 08:10:53;;;;;;;33.90;9.03;;;27.20;52.10;;;;;;5041070;28;20192;-67
2023/07/02 08:13:21;;;;;;;40.57;10.00;;;27.20;52.10;;;;;;5026925;28;20209;-65
2023/07/02 08:15:48;;;;;;;26.73;8.40;;;27.20;52.10;;;;;;5033017;28;20220;-64
2023/07/02 08:18:15;;;;;;;29.97;8.77;;;27.30;52.10;;;;;;5038601;28;20204;-65
2023/07/02 08:20:42;;;;;;;43.63;10.40;;;27.30;52.10;;;;;;5037079;28;20196;-64
2023/07/02 08:23:09;;;;;;;32.37;9.40;;;27.30;52.10;;;;;;5040249;28;20204;-65
2023/07/02 08:25:36;;;;;;;37.03;9.67;;;27.30;52.20;;;;;;5048205;28;20282;-66
2023/07/02 08:28:03;;;;;;;45.70;10.23;;;27.30;52.10;;;;;;5027508;28;20731;-65
2023/07/02 08:30:31;;;;;;;33.30;8.90;;;27.30;52.10;;;;;;5031228;28;20207;-66
2023/07/02 08:32:58;;;;;;;33.27;9.63;;;27.30;52.10;;;;;;5046580;28;20205;-66
2023/07/02 08:35:25;;;;;;;53.00;10.03;;;27.40;52.00;;;;;;5044034;28;20279;-65
2023/07/02 08:37:51;;;;;;;39.83;9.00;;;27.40;51.80;;;;;;5008303;28;20206;-65
2023/07/02 08:40:19;;;;;;;32.23;8.80;;;27.40;51.60;;;;;;5015224;28;20226;-64
2023/07/02 08:42:47;;;;;;;32.97;8.60;;;27.40;51.40;;;;;;5033684;28;20203;-68
2023/07/02 08:45:16;;;;;;;44.40;9.53;;;27.50;51.40;;;;;;5029006;28;20311;-65
2023/07/02 08:47:46;;;;;;;38.67;9.27;;;27.40;51.30;;;;;;5027794;28;20213;-67
2023/07/02 08:50:13;;;;;;;60.47;10.70;;;27.40;51.20;;;;;;5030237;28;20200;-66
2023/07/02 08:52:40;;;;;;;51.63;10.23;;;27.40;51.30;;;;;;5024119;28;20254;-66
2023/07/02 08:55:08;;;;;;;43.90;8.93;;;27.40;51.30;;;;;;5038826;28;20201;-66
2023/07/02 08:57:36;;;;;;;27.50;8.27;;;27.40;51.20;;;;;;5016125;28;20710;-65
2023/07/02 09:00:07;;;;;;;45.03;9.77;;;27.40;51.20;;;;;;5011844;28;20291;-68
2023/07/02 09:02:34;;;;;;;53.90;10.80;;;27.40;51.00;;;;;;5024840;28;20205;-65
2023/07/02 09:05:03;;;;;;;28.23;8.57;;;27.40;51.20;;;;;;5032111;28;20241;-65
2023/07/02 09:07:31;;;;;;;33.70;8.33;;;27.40;51.20;;;;;;5017057;28;20236;-69
2023/07/02 09:09:58;;;;;;;34.97;8.37;;;27.40;51.20;;;;;;5030914;28;20404;-65
2023/07/02 09:12:26;;;;;;;36.00;7.97;;;27.40;51.20;;;;;;5022349;28;20193;-64
2023/07/02 09:14:57;;;;;;;34.90;8.73;;;27.50;51.30;;;;;;5011618;28;20276;-64
2023/07/02 09:17:29;;;;;;;39.47;8.67;;;27.50;51.30;;;;;;5010692;28;20218;-64
2023/07/02 09:19:55;;;;;;;38.00;8.50;;;27.50;51.30;;;;;;5011162;28;20280;-65
2023/07/02 09:22:24;;;;;;;33.33;8.67;;;27.50;51.30;;;;;;5011373;28;20202;-65
2023/07/02 09:24:55;;;;;;;44.30;9.37;;;27.50;51.30;;;;;;5015214;28;20205;-64
2023/07/02 09:27:22;;;;;;;53.83;9.90;;;27.50;51.30;;;;;;5011148;28;20241;-65
2023/07/02 09:29:52;;;;;;;45.47;8.97;;;27.60;51.30;;;;;;5026628;28;20209;-66
2023/07/02 09:32:28;;;;;;;43.60;9.33;;;27.60;51.30;;;;;;5020128;28;20259;-66
2023/07/02 09:34:56;;;;;;;43.80;9.07;;;27.60;51.30;;;;;;5010163;28;20232;-64
2023/07/02 09:37:25;;;;;;;34.10;8.20;;;27.70;51.30;;;;;;5014822;28;20271;-64
2023/07/02 09:39:54;;;;;;;34.67;8.40;;;27.70;51.40;;;;;;5010438;28;20248;-65
2023/07/02 09:42:22;;;;;;;29.57;7.83;;;27.70;51.30;;;;;;5014430;28;20213;-65
2023/07/02 09:44:49;;;;;;;35.13;8.23;;;27.70;51.30;;;;;;5010516;28;20219;-65
2023/07/02 09:47:19;;;;;;;35.53;8.60;;;27.80;51.30;;;;;;5012999;28;20223;-69
2023/07/02 09:49:51;;;;;;;36.03;8.40;;;27.80;51.30;;;;;;5010352;28;20196;-66
2023/07/02 09:52:18;;;;;;;30.70;7.93;;;27.80;51.30;;;;;;5010074;28;20678;-65
2023/07/02 09:54:47;;;;;;;30.37;7.97;;;27.80;51.30;;;;;;5011543;28;20204;-66
2023/07/02 09:57:14;;;;;;;35.20;8.63;;;27.90;51.20;;;;;;5029251;28;20204;-67
2023/07/02 09:59:43;;;;;;;38.50;8.20;;;27.80;51.10;;;;;;5035862;28;20202;-73
2023/07/02 10:02:11;;;;;;;30.77;7.97;;;27.90;51.20;;;;;;5016004;28;20210;-73
2023/07/02 10:04:42;;;;;;;42.53;9.10;;;27.90;51.10;;;;;;5009275;28;20654;-69
2023/07/02 10:07:09;;;;;;;55.10;12.27;;;27.90;51.10;;;;;;5016700;28;21084;-68
2023/07/02 10:09:37;;;;;;;66.37;13.43;;;27.90;51.00;;;;;;5020220;28;20206;-73
2023/07/02 10:12:21;;;;;;;34.80;9.63;;;28.00;51.10;;;;;;5043744;28;20206;-74
2023/07/02 10:14:50;;;;;;;44.10;11.03;;;28.00;51.00;;;;;;5036836;28;20197;-72
2023/07/02 10:17:28;;;;;;;38.77;10.20;;;28.10;51.10;;;;;;5047973;28;20585;-74
2023/07/02 10:19:57;;;;;;;42.53;9.63;;;28.10;51.00;;;;;;5049598;28;20192;-65
2023/07/02 10:22:25;;;;;;;44.07;10.93;;;28.20;51.00;;;;;;5030190;28;20208;-67
2023/07/02 10:24:54;;;;;;;32.33;9.37;;;28.20;50.90;;;;;;5029540;28;20672;-73
2023/07/02 10:27:34;;;;;;;29.83;8.80;;;28.30;50.90;;;;;;5028644;28;20916;-73
2023/07/02 10:30:01;;;;;;;28.83;8.23;;;28.30;50.70;;;;;;5049363;28;20215;-69
2023/07/02 10:32:28;;;;;;;34.83;9.27;;;28.40;50.70;;;;;;5049538;28;20215;-73
2023/07/02 10:34:56;;;;;;;35.07;9.17;;;28.40;50.50;;;;;;5033145;28;21207;-64
2023/07/02 10:37:23;;;;;;;49.23;9.87;;;28.40;50.60;;;;;;5024395;28;20214;-64
2023/07/02 10:39:51;;;;;;;48.03;9.50;;;28.50;50.60;;;;;;5020326;28;20212;-63
2023/07/02 10:42:18;;;;;;;38.43;8.33;;;28.50;50.40;;;;;;5015142;28;20255;-65
2023/07/02 10:44:51;;;;;;;31.77;7.90;;;28.60;50.60;;;;;;5015497;28;20736;-63
2023/07/02 10:47:18;;;;;;;53.57;9.10;;;28.60;51.20;;;;;;5019442;28;20217;-64
2023/07/02 10:49:45;;;;;;;33.57;7.60;;;28.70;50.70;;;;;;5010477;28;20255;-64
2023/07/02 10:52:12;;;;;;;57.63;9.90;;;28.70;50.40;;;;;;5011914;28;20209;-63
2023/07/02 10:54:43;;;;;;;39.00;8.57;;;28.80;50.40;;;;;;5028177;28;20204;-63
2023/07/02 10:57:11;;;;;;;32.90;7.37;;;29.00;50.10;;;;;;5019629;28;20591;-63
2023/07/02 10:59:38;;;;;;;35.30;7.53;;;29.00;50.30;;;;;;5013678;28;20212;-65
2023/07/02 11:02:09;;;;;;;32.43;7.87;;;29.10;50.50;;;;;;5011600;28;20209;-64
2023/07/02 11:04:37;;;;;;;67.57;10.97;;;29.20;50.50;;;;;;5035778;28;20210;-65
2023/07/02 11:07:05;;;;;;;34.73;7.83;;;29.30;50.30;;;;;;5012697;28;20201;-65
2023/07/02 11:09:32;;;;;;;27.97;6.80;;;29.50;50.20;;;;;;5017806;28;20201;-66
2023/07/02 11:12:00;;;;;;;32.93;7.83;;;29.60;50.20;;;;;;5015524;28;20459;-66
2023/07/02 11:14:31;;;;;;;47.53;8.70;;;29.80;49.80;;;;;;5014707;28;20208;-68
2023/07/02 11:16:59;;;;;;;41.77;7.90;;;29.90;49.70;;;;;;5027134;28;22352;-63
2023/07/02 11:19:27;;;;;;;49.10;9.03;;;30.10;49.70;;;;;;5008232;28;20197;-65
2023/07/02 11:21:57;;;;;;;35.80;7.43;;;30.20;49.50;;;;;;5039782;28;20327;-64
2023/07/02 11:24:29;;;;;;;27.33;6.70;;;30.40;49.50;;;;;;5032613;28;20215;-66
2023/07/02 11:26:57;;;;;;;41.97;8.17;;;30.60;49.30;;;;;;5037115;28;20278;-65
2023/07/02 11:29:24;;;;;;;28.70;6.70;;;30.70;49.20;;;;;;5011641;28;20205;-63
2023/07/02 11:31:51;;;;;;;30.03;7.17;;;30.80;49.00;;;;;;5012518;28;20600;-63
2023/07/02 11:34:18;;;;;;;44.77;8.63;;;30.90;49.00;;;;;;5029099;28;20208;-66
2023/07/02 11:36:47;;;;;;;32.20;7.63;;;31.10;48.50;;;;;;5034565;28;20203;-64
2023/07/02 11:39:15;;;;;;;31.90;7.87;;;31.20;48.30;;;;;;5013490;28;20728;-67
2023/07/02 11:41:44;;;;;;;31.37;7.40;;;31.40;48.50;;;;;;5018932;28;20288;-65
2023/07/02 11:44:11;;;;;;;29.20;7.00;;;31.50;47.90;;;;;;5021268;28;20211;-67
2023/07/02 11:46:38;;;;;;;62.65;10.38;;;31.60;47.40;;;;;;5028352;28;20695;-64
2023/07/02 11:49:07;;;;;;;29.73;6.90;;;31.70;47.30;;;;;;5018935;28;20679;-68
2023/07/02 11:51:34;;;;;;;31.17;7.45;;;31.90;47.30;;;;;;5018392;28;20724;-64
2023/07/02 11:54:02;;;;;;;35.17;7.55;;;32.00;47.20;;;;;;5031817;28;20204;-68
2023/07/02 11:56:29;;;;;;;25.77;6.72;;;32.10;46.50;;;;;;5011356;28;20205;-68
2023/07/02 11:58:56;;;;;;;26.95;7.15;;;32.20;46.60;;;;;;5036311;28;20200;-64
2023/07/02 12:01:23;;;;;;;34.15;7.55;;;32.30;46.50;;;;;;5040039;28;20219;-70
2023/07/02 12:03:50;;;;;;;30.70;7.78;;;32.40;46.20;;;;;;5046146;28;20283;-63
2023/07/02 12:06:17;;;;;;;43.45;8.50;;;32.50;46.10;;;;;;5012268;28;20205;-63
2023/07/02 12:08:44;;;;;;;36.55;8.15;;;32.60;46.10;;;;;;5038406;28;20325;-63
2023/07/02 12:11:12;;;;;;;40.42;8.45;;;32.70;45.50;;;;;;5009630;28;20207;-64
2023/07/02 12:13:39;;;;;;;29.75;7.05;;;32.80;45.50;;;;;;5008298;28;20201;-63
2023/07/02 12:16:06;;;;;;;31.17;7.35;;;33.00;45.80;;;;;;5014113;28;20224;-64
2023/07/02 12:18:33;;;;;;;31.30;7.38;;;33.10;45.90;;;;;;5027963;28;20193;-63
2023/07/02 12:21:00;;;;;;;19.67;6.25;;;33.10;45.50;;;;;;5019856;28;20197;-64
2023/07/02 12:23:26;;;;;;;28.42;7.60;;;33.30;45.50;;;;;;5031298;28;20200;-64
2023/07/02 12:25:53;;;;;;;26.83;6.82;;;33.30;45.50;;;;;;5032112;28;20216;-67
2023/07/02 12:28:22;;;;;;;29.15;7.78;;;33.40;45.40;;;;;;5011822;28;20224;-65
2023/07/02 12:30:48;;;;;;;26.90;7.35;;;33.40;45.10;;;;;;5041660;28;20648;-63
2023/07/02 12:33:15;;;;;;;26.77;6.68;;;33.50;45.10;;;;;;5044435;28;20204;-65